createdAt,value
2018-09-23T00:01:43.035Z,73.20
2018-09-23T00:04:10.842Z,72.70
2018-09-23T00:06:38.683Z,72.90
2018-09-23T00:09:07.463Z,72.20
2018-09-23T00:11:35.304Z,71.80
2018-09-23T00:14:03.165Z,72.40
2018-09-23T00:16:31.005Z,73.40
2018-09-23T00:18:58.843Z,72.80
2018-09-23T00:21:26.672Z,72.80
2018-09-23T00:23:54.529Z,75.20
2018-09-23T00:26:22.356Z,75.50
2018-09-23T00:28:50.185Z,75.90
2018-09-23T00:31:17.992Z,76.80
2018-09-23T00:33:45.777Z,77.70
2018-09-23T00:36:13.581Z,77.80
2018-09-23T00:38:41.405Z,78.70
2018-09-23T00:41:09.188Z,78.90
2018-09-23T00:43:37.059Z,79.30
2018-09-23T00:46:04.832Z,80.00
2018-09-23T00:48:32.662Z,80.90
2018-09-23T00:51:00.520Z,81.20
2018-09-23T00:53:28.313Z,80.80
2018-09-23T00:55:56.115Z,81.30
2018-09-23T00:58:24.596Z,81.60
2018-09-23T01:00:52.622Z,81.50
2018-09-23T01:03:20.952Z,81.50
2018-09-23T01:05:48.748Z,81.60
2018-09-23T01:08:16.544Z,81.80
2018-09-23T01:10:44.368Z,82.20
2018-09-23T01:13:12.185Z,82.40
2018-09-23T01:15:44.759Z,82.50
2018-09-23T01:18:12.642Z,82.70
2018-09-23T01:20:40.647Z,83.00
2018-09-23T01:23:08.461Z,83.00
2018-09-23T01:25:36.245Z,82.90
2018-09-23T01:28:04.113Z,82.80
2018-09-23T01:30:31.897Z,82.60
2018-09-23T01:32:59.680Z,82.30
2018-09-23T01:36:03.008Z,82.50
2018-09-23T01:38:30.773Z,82.10
2018-09-23T01:40:58.768Z,82.20
2018-09-23T01:43:26.584Z,82.40
2018-09-23T01:45:54.416Z,83.10
2018-09-23T01:48:22.188Z,82.80
2018-09-23T01:50:49.971Z,82.70
2018-09-23T01:53:17.753Z,82.90
2018-09-23T01:55:46.472Z,83.20
2018-09-23T01:58:14.268Z,83.40
2018-09-23T02:00:42.053Z,83.70
2018-09-23T02:03:09.872Z,83.70
2018-09-23T02:05:37.672Z,84.40
2018-09-23T02:08:05.881Z,84.40
2018-09-23T02:10:33.712Z,84.40
2018-09-23T02:13:01.480Z,84.50
2018-09-23T02:15:29.317Z,84.30
2018-09-23T02:17:57.114Z,84.30
2018-09-23T02:20:24.884Z,84.00
2018-09-23T02:22:52.808Z,83.70
2018-09-23T02:25:20.636Z,83.30
2018-09-23T02:27:48.518Z,84.00
2018-09-23T02:30:16.346Z,84.50
2018-09-23T02:32:44.195Z,84.70
2018-09-23T02:35:12.023Z,84.70
2018-09-23T02:37:39.793Z,85.30
2018-09-23T02:40:07.619Z,85.60
2018-09-23T02:42:35.485Z,85.40
2018-09-23T02:45:03.284Z,86.10
2018-09-23T02:47:31.080Z,86.50
2018-09-23T02:49:58.887Z,86.30
2018-09-23T02:52:26.683Z,86.30
2018-09-23T02:54:54.477Z,87.00
2018-09-23T02:57:22.244Z,86.10
2018-09-23T02:59:50.073Z,85.90
2018-09-23T03:02:17.981Z,86.00
2018-09-23T03:04:45.878Z,86.40
2018-09-23T03:07:13.667Z,86.60
2018-09-23T03:09:41.517Z,86.50
2018-09-23T03:12:09.328Z,86.80
2018-09-23T03:14:37.124Z,86.60
2018-09-23T03:17:04.976Z,86.80
2018-09-23T03:19:32.778Z,86.30
2018-09-23T03:22:00.623Z,86.30
2018-09-23T03:24:28.426Z,86.30
2018-09-23T03:26:56.209Z,86.30
2018-09-23T03:29:24.033Z,86.50
2018-09-23T03:31:51.852Z,86.50
2018-09-23T03:34:19.625Z,87.20
2018-09-23T03:36:47.815Z,87.20
2018-09-23T03:39:15.624Z,87.30
2018-09-23T03:41:43.422Z,87.20
2018-09-23T03:44:11.252Z,87.20
2018-09-23T03:46:39.053Z,87.10
2018-09-23T03:49:06.933Z,87.40
2018-09-23T03:51:34.710Z,87.30
2018-09-23T03:54:02.503Z,87.20
2018-09-23T03:56:30.332Z,87.40
2018-09-23T03:58:58.160Z,87.30
2018-09-23T04:01:25.975Z,87.60
2018-09-23T04:03:53.806Z,87.90
2018-09-23T04:06:21.700Z,88.00
2018-09-23T04:08:49.680Z,88.30
2018-09-23T04:11:17.520Z,88.20
2018-09-23T04:13:45.387Z,88.40
2018-09-23T04:16:13.563Z,89.00
2018-09-23T04:18:42.341Z,88.70
2018-09-23T04:21:10.302Z,88.60
2018-09-23T04:23:38.700Z,88.50
2018-09-23T04:26:07.852Z,88.10
2018-09-23T04:28:35.631Z,88.40
2018-09-23T04:31:03.452Z,88.30
2018-09-23T04:33:31.252Z,88.80
2018-09-23T04:35:59.866Z,88.70
2018-09-23T04:38:28.761Z,89.10
2018-09-23T04:40:56.631Z,89.10
2018-09-23T04:43:24.504Z,89.30
2018-09-23T04:45:54.046Z,88.90
2018-09-23T04:48:21.864Z,89.30
2018-09-23T04:50:51.231Z,89.40
2018-09-23T04:53:20.801Z,89.50
2018-09-23T04:55:48.571Z,89.90
2018-09-23T04:58:17.341Z,90.20
2018-09-23T05:00:45.172Z,90.20
2018-09-23T05:03:12.983Z,90.20
2018-09-23T05:05:41.051Z,90.30
2018-09-23T05:08:12.872Z,90.20
2018-09-23T05:10:42.768Z,90.10
2018-09-23T05:13:10.756Z,90.20
2018-09-23T05:15:38.726Z,90.30
2018-09-23T05:18:06.653Z,90.30
2018-09-23T05:20:36.098Z,90.40
2018-09-23T05:23:03.923Z,90.40
2018-09-23T05:25:31.794Z,90.50
2018-09-23T05:27:59.609Z,90.50
2018-09-23T05:30:27.421Z,90.50
2018-09-23T05:32:55.295Z,90.60
2018-09-23T05:35:23.153Z,90.60
2018-09-23T05:37:51.153Z,90.60
2018-09-23T05:40:18.964Z,90.50
2018-09-23T05:42:47.607Z,90.60
2018-09-23T05:45:16.450Z,90.60
2018-09-23T05:47:45.948Z,90.50
2018-09-23T05:50:14.719Z,90.60
2018-09-23T05:52:42.555Z,90.50
2018-09-23T05:55:11.184Z,90.50
2018-09-23T05:57:39.777Z,90.50
2018-09-23T06:00:11.082Z,90.50
2018-09-23T06:02:41.377Z,90.50
2018-09-23T06:05:10.043Z,90.60
2018-09-23T06:07:37.832Z,90.60
2018-09-23T06:10:10.216Z,90.40
2018-09-23T06:12:39.778Z,90.50
2018-09-23T06:15:11.175Z,89.40
2018-09-23T06:17:39.223Z,89.00
2018-09-23T06:20:10.094Z,88.60
2018-09-23T06:22:38.849Z,88.50
2018-09-23T06:25:10.052Z,87.80
2018-09-23T06:27:38.097Z,88.00
2018-09-23T06:30:08.585Z,87.80
2018-09-23T06:32:38.176Z,87.90
2018-09-23T06:35:07.532Z,88.10
2018-09-23T06:37:35.900Z,88.00
2018-09-23T06:40:05.397Z,88.20
2018-09-23T06:42:35.434Z,88.40
2018-09-23T06:45:06.362Z,88.20
2018-09-23T06:47:34.739Z,87.80
2018-09-23T06:50:05.751Z,88.40
2018-09-23T06:52:35.089Z,87.40
2018-09-23T06:55:04.341Z,87.50
2018-09-23T06:57:34.885Z,87.90
2018-09-23T07:00:02.958Z,88.00
2018-09-23T07:02:30.795Z,87.70
2018-09-23T07:04:58.705Z,88.30
2018-09-23T07:07:26.489Z,88.70
2018-09-23T07:09:54.313Z,88.70
2018-09-23T07:12:22.223Z,88.30
2018-09-23T07:14:50.024Z,88.50
2018-09-23T07:17:17.874Z,89.10
2018-09-23T07:19:46.192Z,89.50
2018-09-23T07:22:15.648Z,89.00
2018-09-23T07:24:44.085Z,89.50
2018-09-23T07:27:12.081Z,89.30
2018-09-23T07:29:39.958Z,89.50
2018-09-23T07:32:07.795Z,89.90
2018-09-23T07:34:39.914Z,89.20
2018-09-23T07:37:13.804Z,89.80
2018-09-23T07:39:44.831Z,90.10
2018-09-23T07:42:15.140Z,90.20
2018-09-23T07:44:45.436Z,90.10
2018-09-23T07:47:14.923Z,90.20
2018-09-23T07:49:44.229Z,90.40
2018-09-23T07:52:19.439Z,90.70
2018-09-23T07:54:50.121Z,90.40
2018-09-23T07:57:19.804Z,90.70
2018-09-23T07:59:47.742Z,90.80
2018-09-23T08:02:17.130Z,90.80
2018-09-23T08:04:46.879Z,91.20
2018-09-23T08:07:18.374Z,91.00
2018-09-23T08:09:46.806Z,91.20
2018-09-23T08:12:16.911Z,91.00
2018-09-23T08:14:46.692Z,91.00
2018-09-23T08:17:18.095Z,90.80
2018-09-23T08:19:48.800Z,90.90
2018-09-23T08:22:16.926Z,90.70
2018-09-23T08:24:48.723Z,90.70
2018-09-23T08:27:16.922Z,90.70
2018-09-23T08:29:46.410Z,90.50
2018-09-23T08:32:14.293Z,90.30
2018-09-23T08:34:42.138Z,90.40
2018-09-23T08:37:11.701Z,90.40
2018-09-23T08:39:41.945Z,90.60
2018-09-23T08:42:10.213Z,90.30
2018-09-23T08:44:38.071Z,90.20
2018-09-23T08:47:09.369Z,90.20
2018-09-23T08:49:37.460Z,90.30
2018-09-23T08:52:09.591Z,90.50
2018-09-23T08:54:39.505Z,90.20
2018-09-23T08:57:07.330Z,90.10
2018-09-23T08:59:35.231Z,90.20
2018-09-23T09:02:03.090Z,90.50
2018-09-23T09:04:30.924Z,89.40
2018-09-23T09:06:58.869Z,90.00
2018-09-23T09:09:26.835Z,88.70
2018-09-23T09:11:57.611Z,88.30
2018-09-23T09:14:25.550Z,87.90
2018-09-23T09:16:53.449Z,88.30
2018-09-23T09:19:21.269Z,89.00
2018-09-23T09:21:49.354Z,88.20
2018-09-23T09:24:17.166Z,88.70
2018-09-23T09:26:45.726Z,89.40
2018-09-23T09:29:13.898Z,87.70
2018-09-23T09:31:42.479Z,88.90
2018-09-23T09:34:10.924Z,89.30
2018-09-23T09:36:40.331Z,88.80
2018-09-23T09:39:09.672Z,88.50
2018-09-23T09:41:37.691Z,87.60
2018-09-23T09:44:09.926Z,88.00
2018-09-23T09:46:37.761Z,87.70
2018-09-23T09:49:05.695Z,87.60
2018-09-23T09:51:33.604Z,86.70
2018-09-23T09:54:02.189Z,86.90
2018-09-23T09:56:30.112Z,86.80
2018-09-23T09:58:58.812Z,87.40
2018-09-23T10:01:28.791Z,87.00
2018-09-23T10:03:59.346Z,88.20
2018-09-23T10:06:27.624Z,89.60
2018-09-23T10:08:55.432Z,88.20
2018-09-23T10:11:23.282Z,88.00
2018-09-23T10:13:51.847Z,87.60
2018-09-23T10:16:20.327Z,87.60
2018-09-23T10:18:48.392Z,87.40
2018-09-23T10:21:17.254Z,87.10
2018-09-23T10:23:47.233Z,86.70
2018-09-23T10:26:18.354Z,86.90
2018-09-23T10:28:48.650Z,86.40
2018-09-23T10:31:17.350Z,86.90
2018-09-23T10:33:46.989Z,87.40
2018-09-23T10:36:16.039Z,88.20
2018-09-23T10:38:44.083Z,86.90
2018-09-23T10:41:15.570Z,87.20
2018-09-23T10:43:43.463Z,87.90
2018-09-23T10:46:11.300Z,87.70
2018-09-23T10:48:39.151Z,87.70
2018-09-23T10:51:07.594Z,87.60
2018-09-23T10:53:35.548Z,88.50
2018-09-23T10:56:03.365Z,88.70
2018-09-23T10:58:31.204Z,88.80
2018-09-23T11:00:59.092Z,89.40
2018-09-23T11:03:26.904Z,88.40
2018-09-23T11:05:55.033Z,88.30
2018-09-23T11:08:24.251Z,89.10
2018-09-23T11:10:52.113Z,87.80
2018-09-23T11:13:20.015Z,87.30
2018-09-23T11:15:47.868Z,87.70
2018-09-23T11:18:15.692Z,87.10
2018-09-23T11:20:43.514Z,87.30
2018-09-23T11:23:11.346Z,87.80
2018-09-23T11:25:39.167Z,89.20
2018-09-23T11:28:07.015Z,90.10
2018-09-23T11:30:35.037Z,90.40
2018-09-23T11:33:02.915Z,90.40
2018-09-23T11:35:30.786Z,90.90
2018-09-23T11:37:58.612Z,90.70
2018-09-23T11:40:26.408Z,90.70
2018-09-23T11:42:54.292Z,90.30
2018-09-23T11:45:22.331Z,90.00
2018-09-23T11:47:50.176Z,89.80
2018-09-23T11:50:18.020Z,90.20
2018-09-23T11:52:45.866Z,90.10
2018-09-23T11:55:13.722Z,89.20
2018-09-23T11:57:41.846Z,89.80
2018-09-23T12:00:10.396Z,89.80
2018-09-23T12:02:38.304Z,90.40
2018-09-23T12:05:06.570Z,91.00
2018-09-23T12:07:34.473Z,91.60
2018-09-23T12:10:02.741Z,91.70
2018-09-23T12:12:31.083Z,91.50
2018-09-23T12:14:58.990Z,91.70
2018-09-23T12:17:27.438Z,91.90
2018-09-23T12:19:56.011Z,92.30
2018-09-23T12:22:23.892Z,92.20
2018-09-23T12:24:51.746Z,91.70
2018-09-23T12:27:20.240Z,92.20
2018-09-23T12:29:48.906Z,92.10
2018-09-23T12:32:16.784Z,92.50
2018-09-23T12:34:44.697Z,92.30
2018-09-23T12:37:13.510Z,92.50
2018-09-23T12:39:41.372Z,92.30
2018-09-23T12:42:10.008Z,92.40
2018-09-23T12:44:37.843Z,91.90
2018-09-23T12:47:05.659Z,91.60
2018-09-23T12:49:33.488Z,91.80
2018-09-23T12:52:01.330Z,91.50
2018-09-23T12:54:29.241Z,91.50
2018-09-23T12:56:57.058Z,92.00
2018-09-23T12:59:24.933Z,91.50
2018-09-23T13:01:53.775Z,91.50
2018-09-23T13:04:21.686Z,91.80
2018-09-23T13:06:49.568Z,91.80
2018-09-23T13:09:17.564Z,91.40
2018-09-23T13:11:45.716Z,91.60
2018-09-23T13:14:14.240Z,91.70
2018-09-23T13:16:42.646Z,91.90
2018-09-23T13:19:10.469Z,92.20
2018-09-23T13:21:38.288Z,91.40
2018-09-23T13:24:06.181Z,91.90
2018-09-23T13:26:34.059Z,91.30
2018-09-23T13:29:01.913Z,91.30
2018-09-23T13:31:29.708Z,91.00
2018-09-23T13:33:57.807Z,90.80
2018-09-23T13:36:25.666Z,91.20
2018-09-23T13:38:53.500Z,91.00
2018-09-23T13:41:21.920Z,91.00
2018-09-23T13:43:49.731Z,91.20
2018-09-23T13:46:18.082Z,91.10
2018-09-23T13:48:46.184Z,91.20
2018-09-23T13:51:14.058Z,91.10
2018-09-23T13:53:41.927Z,91.00
2018-09-23T13:56:09.819Z,91.30
2018-09-23T13:58:37.627Z,91.80
2018-09-23T14:01:05.781Z,92.30
2018-09-23T14:03:33.904Z,92.60
2018-09-23T14:06:01.748Z,92.60
2018-09-23T14:08:30.478Z,92.70
2018-09-23T14:11:00.152Z,92.80
2018-09-23T14:13:27.978Z,92.70
2018-09-23T14:15:55.880Z,92.70
2018-09-23T14:18:23.686Z,93.10
2018-09-23T14:20:51.573Z,92.60
2018-09-23T14:23:19.454Z,92.60
2018-09-23T14:25:47.321Z,92.80
2018-09-23T14:28:15.123Z,92.80
2018-09-23T14:30:43.112Z,92.60
2018-09-23T14:33:11.488Z,92.40
2018-09-23T14:35:39.364Z,92.40
2018-09-23T14:38:07.225Z,92.60
2018-09-23T14:40:35.092Z,92.50
2018-09-23T14:43:02.950Z,92.30
2018-09-23T14:45:30.809Z,92.50
2018-09-23T14:47:59.009Z,92.30
2018-09-23T14:50:26.856Z,92.30
2018-09-23T14:52:54.697Z,92.60
2018-09-23T14:55:23.517Z,92.40
2018-09-23T14:57:51.375Z,92.30
2018-09-23T15:00:19.242Z,92.70
2018-09-23T15:02:47.051Z,92.30
2018-09-23T15:05:14.894Z,92.40
2018-09-23T15:07:42.775Z,92.50
2018-09-23T15:10:10.763Z,92.50
2018-09-23T15:12:39.016Z,93.00
2018-09-23T15:15:07.449Z,92.90
2018-09-23T15:17:35.382Z,92.70
2018-09-23T15:20:03.289Z,93.00
2018-09-23T15:22:31.301Z,93.20
2018-09-23T15:24:59.172Z,92.80
2018-09-23T15:27:27.082Z,92.60
2018-09-23T15:29:54.937Z,92.10
2018-09-23T15:32:22.940Z,91.80
2018-09-23T15:34:50.767Z,91.90
2018-09-23T15:37:18.655Z,92.00
2018-09-23T15:39:46.495Z,92.20
2018-09-23T15:42:15.125Z,92.40
2018-09-23T15:44:43.232Z,92.40
2018-09-23T15:47:11.065Z,92.30
2018-09-23T15:49:39.041Z,92.40
2018-09-23T15:52:07.296Z,92.30
2018-09-23T15:54:35.743Z,92.10
2018-09-23T15:57:03.608Z,92.10
2018-09-23T15:59:32.076Z,92.00
2018-09-23T16:01:59.892Z,92.00
2018-09-23T16:04:27.804Z,92.00
2018-09-23T16:06:55.648Z,91.90
2018-09-23T16:09:23.477Z,91.50
2018-09-23T16:11:51.384Z,91.60
2018-09-23T16:14:19.277Z,91.50
2018-09-23T16:16:47.450Z,91.50
2018-09-23T16:19:15.884Z,91.50
2018-09-23T16:21:43.685Z,91.40
2018-09-23T16:24:11.523Z,91.30
2018-09-23T16:26:39.363Z,91.30
2018-09-23T16:29:07.262Z,91.20
2018-09-23T16:31:35.128Z,91.30
2018-09-23T16:34:03.042Z,91.30
2018-09-23T16:36:30.908Z,91.30
2018-09-23T16:38:58.798Z,91.40
2018-09-23T16:41:26.631Z,91.30
2018-09-23T16:43:54.803Z,91.40
2018-09-23T16:46:22.656Z,91.60
2018-09-23T16:48:50.502Z,91.70
2018-09-23T16:51:18.401Z,92.10
2018-09-23T16:53:46.265Z,91.90
2018-09-23T16:56:14.214Z,91.80
2018-09-23T16:58:42.102Z,92.20
2018-09-23T17:01:10.103Z,91.80
2018-09-23T17:03:37.954Z,92.10
2018-09-23T17:06:05.834Z,92.20
2018-09-23T17:08:33.996Z,92.30
2018-09-23T17:11:01.905Z,92.40
2018-09-23T17:13:29.745Z,92.50
2018-09-23T17:15:57.597Z,92.70
2018-09-23T17:18:26.120Z,92.70
2018-09-23T17:20:53.996Z,93.10
2018-09-23T17:23:22.700Z,93.10
2018-09-23T17:25:50.552Z,92.90
2018-09-23T17:28:19.483Z,92.90
2018-09-23T17:30:47.288Z,92.80
2018-09-23T17:33:15.156Z,92.90
2018-09-23T17:35:42.994Z,93.00
2018-09-23T17:38:12.163Z,93.00
2018-09-23T17:40:40.036Z,92.90
2018-09-23T17:43:07.988Z,92.90
2018-09-23T17:45:37.083Z,93.00
2018-09-23T17:48:04.944Z,93.20
2018-09-23T17:50:32.834Z,93.40
2018-09-23T17:53:00.769Z,93.40
2018-09-23T17:55:28.692Z,93.40
2018-09-23T17:57:57.651Z,93.50
2018-09-23T18:00:25.518Z,93.80
2018-09-23T18:02:53.375Z,93.90
2018-09-23T18:05:21.270Z,93.90
2018-09-23T18:07:49.177Z,93.90
2018-09-23T18:10:16.991Z,93.80
2018-09-23T18:12:45.580Z,94.00
2018-09-23T18:15:13.490Z,93.90
2018-09-23T18:17:41.626Z,93.90
2018-09-23T18:20:09.488Z,94.00
2018-09-23T18:22:37.337Z,94.00
2018-09-23T18:25:05.249Z,94.10
2018-09-23T18:27:33.395Z,94.10
2018-09-23T18:30:01.280Z,94.20
2018-09-23T18:32:29.158Z,94.50
2018-09-23T18:34:56.977Z,94.70
2018-09-23T18:37:24.937Z,95.00
2018-09-23T18:39:52.753Z,95.40
2018-09-23T18:42:20.700Z,95.50
2018-09-23T18:44:48.574Z,95.70
2018-09-23T18:47:16.664Z,95.60
2018-09-23T18:49:44.502Z,95.30
2018-09-23T18:52:12.312Z,94.90
2018-09-23T18:54:45.727Z,94.50
2018-09-23T18:57:13.581Z,94.50
2018-09-23T18:59:41.416Z,94.40
2018-09-23T19:02:09.841Z,94.40
2018-09-23T19:04:38.430Z,94.40
2018-09-23T19:07:06.249Z,94.30
2018-09-23T19:09:34.092Z,94.30
2018-09-23T19:12:02.880Z,94.30
2018-09-23T19:14:31.462Z,94.20
2018-09-23T19:16:59.299Z,94.10
2018-09-23T19:19:32.727Z,94.40
2018-09-23T19:22:00.601Z,94.50
2018-09-23T19:24:28.455Z,94.30
2018-09-23T19:26:56.375Z,93.70
2018-09-23T19:29:24.100Z,94.60
2018-09-23T19:31:51.919Z,93.30
2018-09-23T19:34:19.734Z,92.30
2018-09-23T19:36:47.541Z,92.80
2018-09-23T19:39:19.552Z,93.40
2018-09-23T19:41:47.444Z,93.50
2018-09-23T19:44:15.914Z,93.50
2018-09-23T19:46:47.207Z,93.40
2018-09-23T19:49:20.047Z,93.20
2018-09-23T19:51:48.405Z,93.00
2018-09-23T19:54:16.237Z,93.40
2018-09-23T19:56:44.994Z,93.80
2018-09-23T19:59:12.893Z,94.00
2018-09-23T20:01:40.846Z,94.30
2018-09-23T20:04:10.099Z,94.40
2018-09-23T20:06:42.032Z,94.70
2018-09-23T20:09:10.990Z,94.70
2018-09-23T20:11:40.010Z,94.70
2018-09-23T20:14:08.813Z,94.80
2018-09-23T20:16:42.947Z,94.90
2018-09-23T20:19:13.252Z,95.00
2018-09-23T20:21:42.112Z,94.90
2018-09-23T20:24:12.993Z,95.10
2018-09-23T20:26:46.718Z,95.40
2018-09-23T20:29:21.716Z,95.20
2018-09-23T20:31:57.322Z,95.10
2018-09-23T20:34:34.992Z,95.10
2018-09-23T20:37:11.412Z,95.00
2018-09-23T20:39:45.629Z,95.00
2018-09-23T20:42:18.512Z,94.90
2018-09-23T20:44:51.219Z,94.90
2018-09-23T20:47:23.273Z,95.00
2018-09-23T20:49:55.626Z,94.80
2018-09-23T20:52:26.134Z,94.50
2018-09-23T20:54:56.963Z,94.50
2018-09-23T20:57:28.812Z,94.20
2018-09-23T21:00:03.620Z,94.30
2018-09-23T21:02:35.143Z,94.10
2018-09-23T21:05:03.369Z,94.00
2018-09-23T21:07:35.888Z,94.00
2018-09-23T21:10:09.687Z,94.00
2018-09-23T21:12:39.754Z,94.00
2018-09-23T21:15:12.021Z,93.90
2018-09-23T21:17:46.336Z,94.10
2018-09-23T21:20:17.968Z,93.90
2018-09-23T21:22:50.870Z,93.90
2018-09-23T21:25:22.550Z,93.80
2018-09-23T21:27:53.055Z,93.70
2018-09-23T21:30:23.260Z,93.60
2018-09-23T21:32:54.393Z,93.50
2018-09-23T21:35:27.079Z,93.50
2018-09-23T21:37:58.331Z,93.60
2018-09-23T21:40:30.804Z,93.70
2018-09-23T21:42:59.779Z,93.50
2018-09-23T21:45:29.248Z,93.40
2018-09-23T21:48:00.076Z,93.30
2018-09-23T21:50:32.769Z,92.90
2018-09-23T21:53:09.523Z,92.60
2018-09-23T21:55:40.123Z,92.20
2018-09-23T21:58:12.685Z,92.10
2018-09-23T22:00:43.976Z,92.00
2018-09-23T22:03:14.017Z,92.00
2018-09-23T22:05:42.983Z,92.00
2018-09-23T22:08:12.083Z,92.50
2018-09-23T22:10:40.886Z,92.70
2018-09-23T22:13:12.786Z,92.80
2018-09-23T22:15:50.488Z,92.90
2018-09-23T22:18:18.769Z,92.80
2018-09-23T22:20:49.489Z,93.10
2018-09-23T22:23:19.289Z,93.10
2018-09-23T22:25:53.583Z,93.30
2018-09-23T22:28:26.456Z,93.30
2018-09-23T22:30:58.489Z,92.90
2018-09-23T22:33:29.485Z,92.90
2018-09-23T22:35:57.736Z,92.70
2018-09-23T22:38:27.879Z,92.60
2018-09-23T22:41:02.568Z,92.60
2018-09-23T22:43:34.216Z,92.50
2018-09-23T22:46:05.362Z,92.60
2018-09-23T22:48:42.676Z,93.00
2018-09-23T22:51:13.212Z,92.90
2018-09-23T22:53:43.227Z,93.10
2018-09-23T22:56:15.115Z,93.10
2018-09-23T22:58:43.342Z,93.10
2018-09-23T23:01:11.524Z,93.10
2018-09-23T23:03:40.349Z,93.00
2018-09-23T23:06:11.787Z,93.00
2018-09-23T23:08:41.195Z,93.30
2018-09-23T23:13:46.567Z,93.50
2018-09-23T23:16:17.621Z,93.90
2018-09-23T23:18:45.533Z,94.00
2018-09-23T23:21:18.001Z,93.90
2018-09-23T23:23:48.798Z,93.30
2018-09-23T23:26:16.684Z,93.80
2018-09-23T23:28:44.512Z,94.00
2018-09-23T23:31:13.309Z,94.30
2018-09-23T23:33:41.117Z,94.50
2018-09-23T23:36:09.005Z,94.80
2018-09-23T23:38:36.892Z,94.70
2018-09-23T23:41:04.964Z,94.80
2018-09-23T23:43:32.821Z,93.90
2018-09-23T23:46:00.643Z,93.60
2018-09-23T23:48:28.512Z,93.60
2018-09-23T23:50:56.328Z,93.40
2018-09-23T23:53:24.128Z,93.60
2018-09-23T23:55:51.979Z,93.70
2018-09-23T23:58:19.814Z,93.50
